Selected Aviation Weather Reports

Never base important decisions on this or any weather information obtained from a non-NWS site!

Last update: Jun 25, 2021, 1:59 am CDT

 

There are no active watches, warnings or advisories for the Mid-South area.

METAR for KATL, KDFW, KEWR, KLAX, KMEM & KORD

METAR is also known as Meteorological Terminal Aviation Routine Weather Report or Meteorological Aerodrome Report.


2021/06/25 05:52 KATL 250552Z 11005KT 10SM FEW030 FEW050 SCT250 22/18 A3022 RMK AO2 SLP223 T02170178 10272 20217 58002

KATL, Jun 25, 2021, 05:52Z
Hartsfield-Jackson Atlanta International Airport
Wind: 110° @ 5 kts
Visibility: 10 Statute miles
Clouds: Few @ 3,000 ft
Few @ 5,000 ft
Scattered @ 25,000 ft
Altimeter: 30.22 in/Hg
Sea Level Pressure: 1022.3 mb
Temperature: 71.06°F (21.7°C)
Dew Point: 64.04°F (17.8°C)
Pressure trend, past 3 hrs: Pressure Trend 0.2 in/Hg
High Temp, past 6 hrs: 80.96°F (27.2°C)
Low Temp, past 6 hrs: 71.06°F (21.7°C)

2021/06/25 05:53 KDFW 250553Z 17016G22KT 10SM CLR 29/24 A2990 RMK AO2 SLP115 T02940244 10344 20294 403500256 53014

KDFW, Jun 25, 2021, 05:53Z
Dallas-Ft. Worth International Airport
Wind: 170° @ 16 kts, Gusts to 22 kts
Visibility: 10 Statute miles
Clouds: Skies Clear
Altimeter: 29.90 in/Hg
Sea Level Pressure: 1011.5 mb
Temperature: 84.92°F (29.4°C)
Dew Point: 75.92°F (24.4°C)
Pressure trend, past 3 hrs: Pressure Trend 1.4 in/Hg
High Temp, past 6 hrs: 93.92°F (34.4°C)
Low Temp, past 6 hrs: 84.92°F (29.4°C)
High Temp, past 24 hrs: 95°F (35.0°C)
Low Temp, past 24 hrs: 78.08°F (25.6°C)

2021/06/25 05:51 KEWR 250551Z 01008KT 10SM SCT040 SCT250 17/11 A3030 RMK AO2 SLP260 T01670111 10211 20161 58011 $

KEWR, Jun 25, 2021, 05:51Z
Newark Liberty International Airport
Wind: 010° @ 8 kts
Visibility: 10 Statute miles
Clouds: Scattered @ 4,000 ft
Scattered @ 25,000 ft
Altimeter: 30.30 in/Hg
Sea Level Pressure: 1026.0 mb
Temperature: 62.06°F (16.7°C)
Dew Point: 51.98°F (11.1°C)
Pressure trend, past 3 hrs: Pressure Trend 1.1 in/Hg
High Temp, past 6 hrs: 69.98°F (21.1°C)
Low Temp, past 6 hrs: 60.98°F (16.1°C)
Additional Remarks: 
Maintenance Needed on the System.

2021/06/25 05:53 KLAX 250553Z 25006KT 10SM FEW012 16/14 A2999 RMK AO2 SLP155 T01610139 10194 20161 53007 $

KLAX, Jun 25, 2021, 05:53Z
Los Angeles International Airport
Wind: 250° @ 6 kts
Visibility: 10 Statute miles
Clouds: Few @ 1,200 ft
Altimeter: 29.99 in/Hg
Sea Level Pressure: 1015.5 mb
Temperature: 60.98°F (16.1°C)
Dew Point: 57.02°F (13.9°C)
Pressure trend, past 3 hrs: Pressure Trend 0.7 in/Hg
High Temp, past 6 hrs: 66.92°F (19.4°C)
Low Temp, past 6 hrs: 60.98°F (16.1°C)
Additional Remarks: 
Maintenance Needed on the System.

2021/06/25 05:54 KMEM 250554Z 16008KT 10SM SCT210 28/23 A3003 RMK AO2 SLP163 T02780233 10317 20278 403330206 51013 $

KMEM, Jun 25, 2021, 05:54Z
Memphis International Airport
Wind: 160° @ 8 kts
Visibility: 10 Statute miles
Clouds: Scattered @ 21,000 ft
Altimeter: 30.03 in/Hg
Sea Level Pressure: 1016.3 mb
Temperature: 82.04°F (27.8°C)
Dew Point: 73.94°F (23.3°C)
Pressure trend, past 3 hrs: Pressure Trend 1.3 in/Hg
High Temp, past 6 hrs: 89.06°F (31.7°C)
Low Temp, past 6 hrs: 82.04°F (27.8°C)
High Temp, past 24 hrs: 91.94°F (33.3°C)
Low Temp, past 24 hrs: 69.08°F (20.6°C)
Additional Remarks: 
Maintenance Needed on the System.

2021/06/25 05:51 KORD 250551Z 17006KT 10SM FEW010 SCT024 BKN090 OVC130 21/20 A2993 RMK AO2 SLP131 T02110200 10217 20211 402440200 58011

KORD, Jun 25, 2021, 05:51Z
Chicago O’Hare International Airport
Wind: 170° @ 6 kts
Visibility: 10 Statute miles
Clouds: Few @ 1,000 ft
Scattered @ 2,400 ft
Broken @ 9,000 ft
Overcast @ 13,000 ft
Altimeter: 29.93 in/Hg
Sea Level Pressure: 1013.1 mb
Temperature: 69.98°F (21.1°C)
Dew Point: 68°F (20.0°C)
Pressure trend, past 3 hrs: Pressure Trend 1.1 in/Hg
High Temp, past 6 hrs: 71.06°F (21.7°C)
Low Temp, past 6 hrs: 69.98°F (21.1°C)
High Temp, past 24 hrs: 75.92°F (24.4°C)
Low Temp, past 24 hrs: 68°F (20.0°C)

Top of page